Time;durP1;ratioP1;P1;durP2;ratioP2;P2;SDS_P1;SDS_P2;PMS_P1;PMS_P2;Temp;Humidity;BMP_temperature;BMP_pressure;BME280_temperature;BME280_humidity;BME280_pressure;Samples;Min_cycle;Max_cycle;Signal;HPM_P1;HPM_P2
2022/03/25 00:00:36;;;;;;;;;;;;;;;6.23;69.13;101453.03;4995090;28;1989;-95
2022/03/25 00:03:04;;;;;;;;;;;;;;;6.22;69.14;101450.53;5002822;28;1717;-96
2022/03/25 00:05:31;;;;;;;;;;;;;;;6.22;69.13;101431.81;4996022;28;1700;-96
2022/03/25 00:07:57;;;;;;;;;;;;;;;6.22;69.36;101426.47;5015694;28;964;-95
2022/03/25 00:10:24;;;;;;;;;;;;;;;6.20;68.95;101426.63;4995608;28;1652;-96
2022/03/25 00:12:50;;;;;;;;;;;;;;;6.19;68.94;101422.28;4992337;28;1452;-95
2022/03/25 00:15:18;;;;;;;;;;;;;;;6.19;69.08;101416.09;4998382;28;1427;-96
2022/03/25 00:17:45;;;;;;;;;;;;;;;6.18;69.04;101412.59;4997952;28;1177;-96
2022/03/25 00:20:11;;;;;;;;;;;;;;;6.17;69.21;101413.59;4995051;28;1975;-95
2022/03/25 00:22:38;;;;;;;;;;;;;;;6.17;68.82;101415.44;4998209;28;1197;-96
2022/03/25 00:25:05;;;;;;;;;;;;;;;6.16;68.95;101419.94;4997814;28;1790;-96
2022/03/25 00:27:32;;;;;;;;;;;;;;;6.14;69.14;101408.56;4998340;28;1279;-95
2022/03/25 00:29:58;;;;;;;;;;;;;;;6.13;69.02;101409.59;4997426;28;1452;-95
2022/03/25 00:32:25;;;;;;;;;;;;;;;6.13;68.89;101414.94;4997682;28;1565;-96
2022/03/25 00:34:51;;;;;;;;;;;;;;;6.11;69.24;101408.91;5007142;28;3619;-96
2022/03/25 00:37:18;;;;;;;;;;;;;;;6.11;69.22;101406.25;4999508;28;1193;-96
2022/03/25 00:39:45;;;;;;;;;;;;;;;6.10;69.15;101407.25;5011488;28;2347;-96
2022/03/25 00:42:13;;;;;;;;;;;;;;;6.08;68.88;101402.06;4994668;28;1911;-96
2022/03/25 00:44:40;;;;;;;;;;;;;;;6.07;69.10;101408.44;4997612;28;1197;-95
2022/03/25 00:47:06;;;;;;;;;;;;;;;6.06;68.99;101405.91;5013295;28;1561;-96
2022/03/25 00:49:33;;;;;;;;;;;;;;;6.05;69.14;101397.06;4996631;28;1507;-96
2022/03/25 00:51:59;;;;;;;;;;;;;;;6.04;68.97;101392.72;5000466;28;1213;-95
2022/03/25 00:54:27;;;;;;;;;;;;;;;6.03;68.96;101393.75;5001503;28;1260;-96
2022/03/25 00:56:54;;;;;;;;;;;;;;;6.02;69.09;101384.03;4983465;28;1539;-95
2022/03/25 00:59:21;;;;;;;;;;;;;;;6.02;69.03;101375.19;5001312;28;1215;-95
2022/03/25 01:01:48;;;;;;;;;;;;;;;6.00;69.03;101378.03;5017580;28;1966;-96
2022/03/25 01:04:16;;;;;;;;;;;;;;;5.99;69.19;101370.16;5000712;28;1587;-95
2022/03/25 01:06:43;;;;;;;;;;;;;;;5.99;69.04;101356.78;5001091;28;1615;-96
2022/03/25 01:09:09;;;;;;;;;;;;;;;5.98;69.16;101353.28;5001760;28;1289;-96
2022/03/25 01:11:36;;;;;;;;;;;;;;;5.97;69.08;101346.28;5017205;28;1515;-96
2022/03/25 01:14:03;;;;;;;;;;;;;;;5.95;69.02;101342.94;4999904;28;1491;-96
2022/03/25 01:16:30;;;;;;;;;;;;;;;5.95;68.77;101342.09;5000560;28;1471;-96
2022/03/25 01:18:56;;;;;;;;;;;;;;;5.94;68.80;101333.22;4990574;28;1306;-96
2022/03/25 01:21:22;;;;;;;;;;;;;;;5.92;68.88;101337.91;5001172;28;1911;-95
2022/03/25 01:23:49;;;;;;;;;;;;;;;5.91;69.05;101337.06;5000843;28;1210;-95
2022/03/25 01:26:16;;;;;;;;;;;;;;;5.90;68.91;101331.88;5008111;28;1275;-95
2022/03/25 01:28:42;;;;;;;;;;;;;;;5.88;68.83;101334.75;4993919;28;1592;-96
2022/03/25 01:31:09;;;;;;;;;;;;;;;5.89;68.92;101324.88;4999746;28;1504;-96
2022/03/25 01:33:36;;;;;;;;;;;;;;;5.87;69.09;101324.19;5009944;28;1794;-94
2022/03/25 01:36:03;;;;;;;;;;;;;;;5.88;69.00;101339.22;5000673;28;1652;-95
2022/03/25 01:38:30;;;;;;;;;;;;;;;5.85;68.82;101332.41;5000986;28;1672;-96
2022/03/25 01:40:56;;;;;;;;;;;;;;;5.84;69.01;101328.03;4999902;28;1914;-95
2022/03/25 01:43:23;;;;;;;;;;;;;;;5.83;68.97;101334.41;5000553;28;1292;-96
2022/03/25 01:45:50;;;;;;;;;;;;;;;5.83;68.79;101333.56;5016425;28;1569;-96
2022/03/25 01:48:17;;;;;;;;;;;;;;;5.83;69.00;101341.59;5000664;28;1321;-95
2022/03/25 01:50:44;;;;;;;;;;;;;;;5.83;68.72;101333.56;4999718;28;1527;-96
2022/03/25 01:53:10;;;;;;;;;;;;;;;5.81;68.82;101338.25;5000887;28;1173;-95
2022/03/25 01:55:37;;;;;;;;;;;;;;;5.80;68.96;101341.94;5029167;28;1367;-95
2022/03/25 01:58:06;;;;;;;;;;;;;;;5.79;68.69;101341.06;5017797;28;976;-96
2022/03/25 02:00:32;;;;;;;;;;;;;;;5.78;68.98;101343.94;4999201;28;1914;-96
2022/03/25 02:02:59;;;;;;;;;;;;;;;5.78;68.88;101333.25;4999589;28;1284;-95
2022/03/25 02:05:26;;;;;;;;;;;;;;;5.76;69.18;101335.25;4999133;28;2236;-96
2022/03/25 02:07:53;;;;;;;;;;;;;;;5.74;68.75;101319.38;5000292;28;1186;-95
2022/03/25 02:10:19;;;;;;;;;;;;;;;5.73;68.68;101325.72;5000219;28;1452;-95
2022/03/25 02:12:46;;;;;;;;;;;;;;;5.72;68.79;101313.38;5005250;28;1767;-95
2022/03/25 02:15:13;;;;;;;;;;;;;;;5.72;68.73;101309.84;4996864;28;1646;-96
2022/03/25 02:17:39;;;;;;;;;;;;;;;5.70;68.83;101308.16;5000264;28;1724;-95
2022/03/25 02:20:08;;;;;;;;;;;;;;;5.68;68.57;101320.91;4998903;28;1530;-95
2022/03/25 02:22:35;;;;;;;;;;;;;;;5.69;68.86;101316.38;5000013;28;1922;-96
2022/03/25 02:25:02;;;;;;;;;;;;;;;5.67;69.01;101303.16;4996966;28;3711;-95
2022/03/25 02:27:29;;;;;;;;;;;;;;;5.66;68.70;101298.84;4980439;28;1170;-96
2022/03/25 02:29:56;;;;;;;;;;;;;;;5.65;68.92;101299.84;4996819;28;1331;-96
2022/03/25 02:32:22;;;;;;;;;;;;;;;5.65;68.69;101291.00;5010295;28;1511;-96
2022/03/25 02:34:49;;;;;;;;;;;;;;;5.63;68.77;101298.34;4998996;28;1531;-96
2022/03/25 02:37:15;;;;;;;;;;;;;;;5.61;68.63;101295.00;4998275;28;1862;-96
2022/03/25 02:39:42;;;;;;;;;;;;;;;5.62;68.81;101297.50;4996778;28;1335;-95
2022/03/25 02:42:08;;;;;;;;;;;;;;;5.60;68.67;101279.97;4997913;28;1973;-95
2022/03/25 02:44:35;;;;;;;;;;;;;;;5.59;68.81;101276.47;4985155;28;1598;-95
2022/03/25 02:47:02;;;;;;;;;;;;;;;5.58;68.97;101271.28;4999276;28;1606;-96
2022/03/25 02:49:28;;;;;;;;;;;;;;;5.58;68.67;101273.97;4998332;28;1905;-96
2022/03/25 02:51:55;;;;;;;;;;;;;;;5.57;68.65;101272.31;4996076;28;1289;-96
2022/03/25 02:54:21;;;;;;;;;;;;;;;5.57;68.96;101277.66;4998973;28;1672;-96
2022/03/25 02:56:48;;;;;;;;;;;;;;;5.56;68.74;101279.50;4995543;28;1804;-96
2022/03/25 02:59:15;;;;;;;;;;;;;;;5.56;68.63;101275.97;4997214;28;1499;-96
2022/03/25 03:01:41;;;;;;;;;;;;;;;5.56;68.71;101273.28;4994485;28;1918;-96
2022/03/25 03:04:09;;;;;;;;;;;;;;;5.54;68.60;101262.78;4996459;28;1395;-95
2022/03/25 03:06:36;;;;;;;;;;;;;;;5.54;68.47;101272.63;4986216;28;3454;-96
2022/03/25 03:09:02;;;;;;;;;;;;;;;5.53;68.67;101266.47;4995871;28;1164;-96
2022/03/25 03:11:29;;;;;;;;;;;;;;;5.52;68.34;101256.75;4994672;28;1898;-96
2022/03/25 03:13:56;;;;;;;;;;;;;;;5.52;68.70;101259.44;5011284;28;1322;-95
2022/03/25 03:16:23;;;;;;;;;;;;;;;5.51;68.65;101256.94;5006030;28;1936;-95
2022/03/25 03:18:50;;;;;;;;;;;;;;;5.49;68.60;101251.75;4995778;28;1458;-96
2022/03/25 03:21:17;;;;;;;;;;;;;;;5.50;68.53;101249.91;4978316;28;1974;-96
2022/03/25 03:23:45;;;;;;;;;;;;;;;5.49;68.38;101246.41;4995662;28;1666;-96
2022/03/25 03:26:11;;;;;;;;;;;;;;;5.49;68.54;101240.25;4995227;28;1484;-95
2022/03/25 03:28:38;;;;;;;;;;;;;;;5.47;68.59;101245.75;4995673;28;1300;-96
2022/03/25 03:31:05;;;;;;;;;;;;;;;5.47;68.63;101241.25;4999607;28;1590;-96
2022/03/25 03:33:32;;;;;;;;;;;;;;;5.46;68.43;101234.22;5011948;28;1236;-96
2022/03/25 03:35:58;;;;;;;;;;;;;;;5.45;68.34;101235.25;5008320;28;1518;-95
2022/03/25 03:38:25;;;;;;;;;;;;;;;5.44;68.28;101230.91;4975981;28;1205;-96
2022/03/25 03:40:51;;;;;;;;;;;;;;;5.45;68.50;101232.56;4978204;28;2077;-96
2022/03/25 03:43:18;;;;;;;;;;;;;;;5.44;68.21;101230.91;4976039;28;1194;-95
2022/03/25 03:45:44;;;;;;;;;;;;;;;5.44;68.17;101238.06;5008080;28;1750;-96
2022/03/25 03:48:11;;;;;;;;;;;;;;;5.42;68.49;101227.56;4993783;28;1509;-95
2022/03/25 03:50:38;;;;;;;;;;;;;;;5.43;68.34;101231.06;5011787;28;1553;-96
2022/03/25 03:53:04;;;;;;;;;;;;;;;5.42;68.22;101238.25;5018457;28;1180;-96
2022/03/25 03:55:31;;;;;;;;;;;;;;;5.41;68.21;101223.22;5014617;28;1168;-96
2022/03/25 03:57:57;;;;;;;;;;;;;;;5.43;68.37;101231.06;5030160;28;1570;-95
2022/03/25 04:00:25;;;;;;;;;;;;;;;5.42;68.22;101232.09;5022259;28;1554;-95
2022/03/25 04:02:51;;;;;;;;;;;;;;;5.39;68.18;101225.22;5034557;28;1914;-95
2022/03/25 04:05:18;;;;;;;;;;;;;;;5.39;68.25;101225.22;5023444;28;1510;-95
2022/03/25 04:07:45;;;;;;;;;;;;;;;5.39;68.06;101217.22;5017298;28;1412;-96
2022/03/25 04:10:11;;;;;;;;;;;;;;;5.39;68.14;101211.88;5017807;28;1295;-96
2022/03/25 04:12:38;;;;;;;;;;;;;;;5.38;68.08;101212.88;5016118;28;1543;-96
2022/03/25 04:15:05;;;;;;;;;;;;;;;5.37;68.12;101205.84;5017656;28;1855;-95
2022/03/25 04:17:31;;;;;;;;;;;;;;;5.37;68.18;101211.19;4998298;28;1283;-95
2022/03/25 04:19:58;;;;;;;;;;;;;;;5.37;68.21;101210.38;5009762;28;1511;-95
2022/03/25 04:22:25;;;;;;;;;;;;;;;5.36;68.09;101219.41;5030115;28;1910;-95
2022/03/25 04:24:51;;;;;;;;;;;;;;;5.35;68.21;101215.88;4997935;28;1165;-96
2022/03/25 04:27:18;;;;;;;;;;;;;;;5.35;68.12;101204.34;5014867;28;1436;-95
2022/03/25 04:29:44;;;;;;;;;;;;;;;5.34;68.02;101211.53;5014202;28;1598;-95
2022/03/25 04:32:11;;;;;;;;;;;;;;;5.35;67.75;101213.19;5017738;28;1474;-96
2022/03/25 04:34:37;;;;;;;;;;;;;;;5.35;68.10;101204.34;5016135;28;1532;-95
2022/03/25 04:37:04;;;;;;;;;;;;;;;5.33;68.00;101209.88;5017726;28;1333;-95
2022/03/25 04:39:31;;;;;;;;;;;;;;;5.33;68.07;101204.53;5017708;28;1262;-95
2022/03/25 04:41:57;;;;;;;;;;;;;;;5.32;68.00;101205.53;5013901;28;1918;-95
2022/03/25 04:44:24;;;;;;;;;;;;;;;5.32;67.81;101196.69;4998130;28;1380;-96
2022/03/25 04:46:51;;;;;;;;;;;;;;;5.31;68.04;101201.19;5013606;28;1800;-95
2022/03/25 04:49:18;;;;;;;;;;;;;;;5.32;67.88;101200.19;5013806;28;1536;-96
2022/03/25 04:51:45;;;;;;;;;;;;;;;5.33;67.77;101201.03;5017070;28;1323;-96
2022/03/25 04:54:11;;;;;;;;;;;;;;;5.31;67.82;101205.72;5015803;28;3578;-96
2022/03/25 04:56:38;;;;;;;;;;;;;;;5.30;67.82;101194.19;5018576;28;1370;-96
2022/03/25 04:59:04;;;;;;;;;;;;;;;5.31;67.77;101211.88;5033448;28;1334;-95
2022/03/25 05:01:31;;;;;;;;;;;;;;;5.30;67.82;101202.22;5011037;28;1981;-95
2022/03/25 05:03:57;;;;;;;;;;;;;;;5.30;67.88;101201.38;5015286;28;1429;-95
2022/03/25 05:06:24;;;;;;;;;;;;;;;5.29;67.99;101211.22;5017638;28;1391;-95
2022/03/25 05:08:51;;;;;;;;;;;;;;;5.28;68.02;101212.22;5016680;28;1617;-95
2022/03/25 05:11:17;;;;;;;;;;;;;;;5.28;67.97;101203.38;5013050;28;1517;-95
2022/03/25 05:13:44;;;;;;;;;;;;;;;5.29;68.03;101197.84;5019442;28;1280;-95
2022/03/25 05:16:10;;;;;;;;;;;;;;;5.28;67.62;101195.38;5015581;28;1439;-95
2022/03/25 05:18:38;;;;;;;;;;;;;;;5.30;67.74;101198.72;5016367;28;1589;-95
2022/03/25 05:21:06;;;;;;;;;;;;;;;5.29;67.77;101194.34;5045189;28;1443;-95
2022/03/25 05:23:32;;;;;;;;;;;;;;;5.28;67.84;101211.38;5018608;28;1204;-96
2022/03/25 05:25:59;;;;;;;;;;;;;;;5.29;67.61;101205.88;5033157;28;1917;-95
2022/03/25 05:28:26;;;;;;;;;;;;;;;5.28;67.94;101193.53;5017807;28;1317;-96
2022/03/25 05:30:53;;;;;;;;;;;;;;;5.28;67.73;101190.03;5032686;28;1485;-95
2022/03/25 05:33:19;;;;;;;;;;;;;;;5.28;67.89;101190.84;5014008;28;3192;-95
2022/03/25 05:35:46;;;;;;;;;;;;;;;5.28;67.77;101184.69;5009700;28;1447;-96
2022/03/25 05:38:12;;;;;;;;;;;;;;;5.28;67.58;101190.84;5018677;28;1336;-95
2022/03/25 05:40:39;;;;;;;;;;;;;;;5.27;67.92;101191.03;5019053;28;1580;-96
2022/03/25 05:43:07;;;;;;;;;;;;;;;5.26;67.72;101192.84;5020461;28;1969;-96
2022/03/25 05:45:34;;;;;;;;;;;;;;;5.24;67.73;101179.69;5039262;28;1703;-96
2022/03/25 05:48:00;;;;;;;;;;;;;;;5.26;67.85;101176.81;5036807;28;1558;-95
2022/03/25 05:50:28;;;;;;;;;;;;;;;5.25;67.79;101177.84;5042649;28;1903;-95
2022/03/25 05:52:54;;;;;;;;;;;;;;;5.24;67.87;101177.00;5000585;28;1280;-95
2022/03/25 05:55:21;;;;;;;;;;;;;;;5.23;67.77;101175.34;5016807;28;1332;-95
2022/03/25 05:57:48;;;;;;;;;;;;;;;5.24;67.68;101174.34;4997253;28;1320;-95
2022/03/25 06:00:15;;;;;;;;;;;;;;;5.25;67.73;101169.81;5012625;28;1838;-96
2022/03/25 06:02:42;;;;;;;;;;;;;;;5.25;67.81;101167.16;5015705;28;1918;-95
2022/03/25 06:05:08;;;;;;;;;;;;;;;5.23;67.72;101164.66;5016377;28;1222;-95
2022/03/25 06:07:35;;;;;;;;;;;;;;;5.24;67.72;101169.00;5016513;28;1185;-95
2022/03/25 06:10:02;;;;;;;;;;;;;;;5.25;67.80;101161.81;5013991;28;1309;-96
2022/03/25 06:12:28;;;;;;;;;;;;;;;5.27;67.53;101169.66;5016350;28;1181;-96
2022/03/25 06:14:55;;;;;;;;;;;;;;;5.25;67.58;101180.50;5015695;28;1458;-95
2022/03/25 06:17:22;;;;;;;;;;;;;;;5.27;67.65;101177.69;5016541;28;1295;-95
2022/03/25 06:19:48;;;;;;;;;;;;;;;5.26;67.78;101174.16;5015683;28;1658;-96
2022/03/25 06:22:14;;;;;;;;;;;;;;;5.26;67.68;101174.16;5015235;28;1987;-95
2022/03/25 06:24:41;;;;;;;;;;;;;;;5.24;67.61;101173.50;5005533;28;2182;-95
2022/03/25 06:27:08;;;;;;;;;;;;;;;5.23;67.72;101178.03;5016413;28;1272;-95
2022/03/25 06:29:35;;;;;;;;;;;;;;;5.26;67.53;101184.84;5016196;28;1553;-95
2022/03/25 06:32:04;;;;;;;;;;;;;;;5.23;67.86;101175.34;5013055;28;1939;-95
2022/03/25 06:34:31;;;;;;;;;;;;;;;5.23;67.64;101186.03;5016497;28;1384;-95
2022/03/25 06:36:57;;;;;;;;;;;;;;;5.23;67.64;101175.34;5012838;28;1148;-95
2022/03/25 06:39:24;;;;;;;;;;;;;;;5.25;67.64;101175.16;5010443;28;1665;-95
2022/03/25 06:41:50;;;;;;;;;;;;;;;5.24;67.75;101184.19;5012739;28;1991;-95
2022/03/25 06:44:17;;;;;;;;;;;;;;;5.26;67.43;101182.16;5012767;28;1951;-95
2022/03/25 06:46:44;;;;;;;;;;;;;;;5.27;67.74;101188.38;5017849;28;1390;-95
2022/03/25 06:49:10;;;;;;;;;;;;;;;5.27;67.44;101172.34;5015956;28;1374;-95
2022/03/25 06:51:37;;;;;;;;;;;;;;;5.23;67.62;101162.00;5014345;28;1953;-96
2022/03/25 06:54:03;;;;;;;;;;;;;;;5.24;67.63;101165.50;5019467;28;1344;-95
2022/03/25 06:56:30;;;;;;;;;;;;;;;5.26;67.52;101163.47;5015081;28;1434;-96
2022/03/25 06:58:57;;;;;;;;;;;;;;;5.27;67.47;101164.34;5005137;28;1574;-95
2022/03/25 07:01:24;;;;;;;;;;;;;;;5.24;67.55;101160.97;5010660;28;1836;-95
2022/03/25 07:03:51;;;;;;;;;;;;;;;5.27;67.65;101170.50;5012372;28;1953;-95
2022/03/25 07:06:17;;;;;;;;;;;;;;;5.25;67.57;101164.47;5028423;28;1645;-94
2022/03/25 07:08:44;;;;;;;;;;;;;;;5.24;67.54;101160.97;5010581;28;1383;-95
2022/03/25 07:11:10;;;;;;;;;;;;;;;5.26;67.61;101160.81;5010963;28;1555;-95
2022/03/25 07:13:37;;;;;;;;;;;;;;;5.23;67.48;101161.13;5008472;28;1617;-95
2022/03/25 07:16:04;;;;;;;;;;;;;;;5.23;67.66;101164.66;5008304;28;2028;-95
2022/03/25 07:18:30;;;;;;;;;;;;;;;5.25;67.51;101164.47;5009476;28;1945;-95
2022/03/25 07:20:59;;;;;;;;;;;;;;;5.23;67.55;101167.34;5008275;28;3255;-95
2022/03/25 07:23:26;;;;;;;;;;;;;;;5.23;67.39;101164.66;5010523;28;3381;-95
2022/03/25 07:25:52;;;;;;;;;;;;;;;5.22;67.72;101160.31;5009769;28;1992;-94
2022/03/25 07:28:19;;;;;;;;;;;;;;;5.24;67.53;101162.81;5012605;28;1667;-95
2022/03/25 07:30:46;;;;;;;;;;;;;;;5.23;67.85;101169.16;5006860;28;3441;-95
2022/03/25 07:33:12;;;;;;;;;;;;;;;5.23;67.58;101167.34;5009279;28;2103;-95
2022/03/25 07:35:39;;;;;;;;;;;;;;;5.21;67.60;101158.66;5009461;28;1370;-95
2022/03/25 07:38:07;;;;;;;;;;;;;;;5.23;67.70;101158.47;5007831;28;1946;-95
2022/03/25 07:40:34;;;;;;;;;;;;;;;5.23;67.64;101156.66;5009106;28;1403;-95
2022/03/25 07:43:00;;;;;;;;;;;;;;;5.22;67.52;101154.97;5009408;28;1914;-94
2022/03/25 07:45:27;;;;;;;;;;;;;;;5.24;67.50;101150.31;5014179;28;1623;-95
2022/03/25 07:47:53;;;;;;;;;;;;;;;5.24;67.66;101160.16;5014685;28;1193;-95
2022/03/25 07:50:20;;;;;;;;;;;;;;;5.23;67.68;101162.00;5037601;28;1276;-95
2022/03/25 07:52:47;;;;;;;;;;;;;;;5.24;67.39;101162.81;5018124;28;1318;-95
2022/03/25 07:55:15;;;;;;;;;;;;;;;5.22;67.55;101148.81;5051215;28;1214;-94
2022/03/25 07:57:42;;;;;;;;;;;;;;;5.22;67.59;101146.13;5051216;28;1283;-95
2022/03/25 08:00:11;;;;;;;;;;;;;;;5.24;67.49;101144.13;5038978;28;2083;-95
2022/03/25 08:02:37;;;;;;;;;;;;;;;5.23;67.32;101139.78;5014478;28;2126;-95
2022/03/25 08:05:04;;;;;;;;;;;;;;;5.23;67.48;101137.97;5014957;28;1201;-95
2022/03/25 08:07:30;;;;;;;;;;;;;;;5.24;67.62;101141.47;5015053;28;1292;-94
2022/03/25 08:09:57;;;;;;;;;;;;;;;5.23;67.73;101137.09;5023471;28;1699;-94
2022/03/25 08:12:23;;;;;;;;;;;;;;;5.24;67.52;101138.78;5035294;28;1144;-95
2022/03/25 08:14:50;;;;;;;;;;;;;;;5.24;67.54;101139.63;5033790;28;1651;-94
2022/03/25 08:17:18;;;;;;;;;;;;;;;5.24;67.58;101150.31;5017871;28;1181;-95
2022/03/25 08:19:45;;;;;;;;;;;;;;;5.24;67.56;101155.66;5013341;28;3422;-94
2022/03/25 08:22:11;;;;;;;;;;;;;;;5.26;67.76;101160.81;5011860;28;3781;-94
2022/03/25 08:30:06;;;;;;;;;;;;;;;5.28;67.77;101169.47;5020334;28;1697;-94
2022/03/25 08:32:32;;;;;;;;;;;;;;;5.27;67.65;101167.00;5017653;28;1189;-95
2022/03/25 08:34:59;;;;;;;;;;;;;;;5.27;67.43;101165.16;5018032;28;1303;-95
2022/03/25 08:37:25;;;;;;;;;;;;;;;5.28;67.79;101171.31;5017545;28;1288;-95
2022/03/25 08:39:52;;;;;;;;;;;;;;;5.28;67.62;101176.66;5016406;28;1466;-94
2022/03/25 08:42:18;;;;;;;;;;;;;;;5.28;67.46;101168.66;5017352;28;1914;-95
2022/03/25 08:44:45;;;;;;;;;;;;;;;5.31;67.42;101160.31;5043330;28;1580;-95
2022/03/25 08:47:12;;;;;;;;;;;;;;;5.30;67.50;101178.16;5014843;28;1523;-95
2022/03/25 08:49:39;;;;;;;;;;;;;;;5.32;67.38;101175.31;5015750;28;2062;-95
2022/03/25 08:52:06;;;;;;;;;;;;;;;5.33;67.38;101179.69;5017555;28;1208;-95
2022/03/25 08:54:32;;;;;;;;;;;;;;;5.34;67.36;101182.16;5017525;28;1169;-95
2022/03/25 08:57:00;;;;;;;;;;;;;;;5.34;67.25;101186.66;5016308;28;2090;-95
2022/03/25 08:59:27;;;;;;;;;;;;;;;5.34;67.42;101194.69;5030772;28;2179;-95
2022/03/25 09:01:56;;;;;;;;;;;;;;;5.37;67.31;101195.16;5032186;28;2209;-95
2022/03/25 09:04:22;;;;;;;;;;;;;;;5.36;67.33;101196.19;5017266;28;1910;-95
2022/03/25 09:06:49;;;;;;;;;;;;;;;5.37;67.41;101194.34;5017476;28;1220;-95
2022/03/25 09:09:15;;;;;;;;;;;;;;;5.38;67.37;101201.34;5017244;28;1325;-95
2022/03/25 09:11:42;;;;;;;;;;;;;;;5.39;67.33;101201.19;5023159;28;1671;-95
2022/03/25 09:14:09;;;;;;;;;;;;;;;5.38;67.51;101196.84;5010136;28;1435;-94
2022/03/25 09:16:35;;;;;;;;;;;;;;;5.40;67.47;101196.69;5021214;28;1212;-94
2022/03/25 09:19:02;;;;;;;;;;;;;;;5.38;67.50;101183.50;5021215;28;1185;-95
2022/03/25 09:21:28;;;;;;;;;;;;;;;5.40;67.46;101192.16;5020107;28;1953;-95
2022/03/25 09:23:55;;;;;;;;;;;;;;;5.39;67.57;101182.50;5013272;28;1979;-95
2022/03/25 09:26:21;;;;;;;;;;;;;;;5.41;67.48;101177.81;5034054;28;1282;-95
2022/03/25 09:28:48;;;;;;;;;;;;;;;5.40;67.27;101176.13;5036382;28;1359;-95
2022/03/25 09:31:14;;;;;;;;;;;;;;;5.41;67.38;101174.28;5020646;28;1488;-95
2022/03/25 09:33:41;;;;;;;;;;;;;;;5.41;67.30;101176.97;5020637;28;1314;-95
2022/03/25 09:36:08;;;;;;;;;;;;;;;5.42;67.52;101173.31;5038494;28;964;-95
2022/03/25 09:38:34;;;;;;;;;;;;;;;5.40;67.49;101168.13;5034649;28;2001;-95
2022/03/25 09:41:04;;;;;;;;;;;;;;;5.41;67.52;101161.78;5020326;28;1294;-95
2022/03/25 09:43:30;;;;;;;;;;;;;;;5.43;67.60;101162.44;5019816;28;1918;-95
2022/03/25 09:45:57;;;;;;;;;;;;;;;5.44;67.54;101163.25;5020431;28;1208;-95
2022/03/25 09:48:24;;;;;;;;;;;;;;;5.44;67.67;101172.13;5019921;28;1451;-95
2022/03/25 09:50:50;;;;;;;;;;;;;;;5.44;67.45;101171.28;5020025;28;1838;-95
2022/03/25 09:53:17;;;;;;;;;;;;;;;5.45;67.75;101178.31;5020356;28;1230;-95
2022/03/25 09:55:44;;;;;;;;;;;;;;;5.45;67.32;101179.13;5020232;28;1217;-94
2022/03/25 09:58:12;;;;;;;;;;;;;;;5.46;67.38;101177.28;5019971;28;1526;-95
2022/03/25 10:00:38;;;;;;;;;;;;;;;5.46;67.54;101172.78;5037089;28;1020;-95
2022/03/25 10:03:05;;;;;;;;;;;;;;;5.49;67.28;101174.28;5020329;28;1910;-94
2022/03/25 10:05:32;;;;;;;;;;;;;;;5.49;67.40;101184.97;5019973;28;1297;-95
2022/03/25 10:07:59;;;;;;;;;;;;;;;5.49;67.72;101184.97;5019986;28;1257;-95
2022/03/25 10:10:25;;;;;;;;;;;;;;;5.50;67.54;101172.44;5019451;28;3737;-95
2022/03/25 10:12:52;;;;;;;;;;;;;;;5.50;67.31;101175.97;5006280;28;1399;-95
2022/03/25 10:15:19;;;;;;;;;;;;;;;5.52;67.33;101184.63;5019880;28;1284;-95
2022/03/25 10:17:46;;;;;;;;;;;;;;;5.53;67.66;101180.09;5017163;28;2093;-95
2022/03/25 10:20:13;;;;;;;;;;;;;;;5.52;67.63;101181.13;5019337;28;2046;-95
2022/03/25 10:22:40;;;;;;;;;;;;;;;5.54;67.52;101171.94;5037265;28;1979;-95
2022/03/25 10:25:09;;;;;;;;;;;;;;;5.54;67.52;101166.59;5019503;28;1193;-95
2022/03/25 10:27:35;;;;;;;;;;;;;;;5.56;67.38;101167.25;5032228;28;3498;-94
2022/03/25 10:30:05;;;;;;;;;;;;;;;5.57;67.52;101158.22;5018972;28;4190;-95
2022/03/25 10:32:32;;;;;;;;;;;;;;;5.58;67.47;101169.75;5016199;28;1442;-95
2022/03/25 10:34:58;;;;;;;;;;;;;;;5.58;67.49;101173.25;5029036;28;1502;-94
2022/03/25 10:37:27;;;;;;;;;;;;;;;5.61;67.53;101180.09;5019573;28;1287;-95
2022/03/25 10:39:53;;;;;;;;;;;;;;;5.60;67.37;101184.59;5019467;28;1188;-95
2022/03/25 10:42:20;;;;;;;;;;;;;;;5.62;67.52;101174.59;5034610;28;1877;-95
2022/03/25 10:44:46;;;;;;;;;;;;;;;5.64;67.25;101172.56;5019791;28;2002;-95
2022/03/25 10:47:13;;;;;;;;;;;;;;;5.65;67.31;101176.09;5016860;28;2476;-94
2022/03/25 10:49:43;;;;;;;;;;;;;;;5.67;67.17;101166.84;5019078;28;1386;-95
2022/03/25 10:52:10;;;;;;;;;;;;;;;5.68;67.42;101165.03;5019337;28;1185;-95
2022/03/25 10:54:36;;;;;;;;;;;;;;;5.68;67.15;101157.03;5018879;28;1185;-95
2022/03/25 10:57:03;;;;;;;;;;;;;;;5.70;67.36;101155.00;5017686;28;1415;-96
2022/03/25 10:59:29;;;;;;;;;;;;;;;5.69;67.36;101154.16;5013226;28;1233;-95
2022/03/25 11:01:56;;;;;;;;;;;;;;;5.71;67.23;101154.00;5015641;28;1185;-95
2022/03/25 11:04:22;;;;;;;;;;;;;;;5.72;67.10;101154.84;5015521;28;1961;-94
2022/03/25 11:06:49;;;;;;;;;;;;;;;5.73;66.99;101153.81;5021945;28;1500;-95
2022/03/25 11:09:15;;;;;;;;;;;;;;;5.72;66.95;101146.81;5019312;28;1205;-95
2022/03/25 11:11:42;;;;;;;;;;;;;;;5.73;67.05;101140.47;5017069;28;1431;-95
2022/03/25 11:14:09;;;;;;;;;;;;;;;5.73;66.93;101137.78;5018886;28;1250;-95
2022/03/25 11:16:35;;;;;;;;;;;;;;;5.74;66.95;101139.47;5051804;28;1298;-96
2022/03/25 11:19:02;;;;;;;;;;;;;;;5.74;66.95;101145.66;5051936;28;1285;-95
2022/03/25 11:21:28;;;;;;;;;;;;;;;5.74;67.14;101134.94;5037097;28;2083;-95
2022/03/25 11:23:55;;;;;;;;;;;;;;;5.74;67.14;101137.63;5015444;28;1887;-95
2022/03/25 11:26:21;;;;;;;;;;;;;;;5.75;66.94;101136.59;5018195;28;1388;-95
2022/03/25 11:28:48;;;;;;;;;;;;;;;5.76;67.10;101140.09;5017234;28;2115;-95
2022/03/25 11:31:15;;;;;;;;;;;;;;;5.76;67.13;101132.09;5019162;28;1193;-95
2022/03/25 11:33:41;;;;;;;;;;;;;;;5.76;67.32;101129.41;5018345;28;1307;-95
2022/03/25 11:36:08;;;;;;;;;;;;;;;5.77;67.09;101117.75;5017757;28;1195;-95
2022/03/25 11:38:35;;;;;;;;;;;;;;;5.77;67.22;101110.53;5016845;28;1878;-95
2022/03/25 11:41:01;;;;;;;;;;;;;;;5.78;67.06;101109.53;5018413;28;1346;-95
2022/03/25 11:43:28;;;;;;;;;;;;;;;5.78;67.23;101095.34;5017152;28;1983;-95
2022/03/25 11:45:54;;;;;;;;;;;;;;;5.79;66.94;101097.00;5018291;28;1223;-96
2022/03/25 11:48:21;;;;;;;;;;;;;;;5.78;67.21;101098.84;5018169;28;1424;-96
2022/03/25 11:50:47;;;;;;;;;;;;;;;5.79;67.25;101079.09;5026844;28;2114;-96
2022/03/25 11:53:14;;;;;;;;;;;;;;;5.78;67.16;101082.78;5021209;28;1373;-96
2022/03/25 11:55:40;;;;;;;;;;;;;;;5.80;66.91;101086.13;5018001;28;1380;-96
2022/03/25 11:58:07;;;;;;;;;;;;;;;5.80;67.23;101078.13;5038647;28;1515;-96
2022/03/25 12:00:33;;;;;;;;;;;;;;;5.80;66.97;101083.47;5017094;28;1453;-96
2022/03/25 12:03:00;;;;;;;;;;;;;;;5.80;67.03;101064.75;5018021;28;1917;-95
2022/03/25 12:05:26;;;;;;;;;;;;;;;5.82;67.13;101064.56;5018082;28;1204;-95
2022/03/25 12:07:53;;;;;;;;;;;;;;;5.81;67.29;101069.06;5017054;28;1533;-95
2022/03/25 12:10:20;;;;;;;;;;;;;;;5.83;67.31;101066.25;5017940;28;1246;-95
2022/03/25 12:12:46;;;;;;;;;;;;;;;5.82;67.25;101068.06;5016930;28;2287;-95
2022/03/25 12:15:13;;;;;;;;;;;;;;;5.83;67.17;101067.06;5018188;28;1241;-95
2022/03/25 12:17:40;;;;;;;;;;;;;;;5.83;67.30;101061.72;5022638;28;3763;-96
2022/03/25 12:20:07;;;;;;;;;;;;;;;5.85;67.39;101058.84;5013300;28;2066;-95
2022/03/25 12:22:34;;;;;;;;;;;;;;;5.86;67.41;101060.53;5006072;28;1944;-95
2022/03/25 12:25:00;;;;;;;;;;;;;;;5.85;67.38;101059.72;5017974;28;1988;-95
2022/03/25 12:27:27;;;;;;;;;;;;;;;5.87;67.33;101062.19;5016565;28;1544;-95
2022/03/25 12:29:54;;;;;;;;;;;;;;;5.86;67.18;101056.03;5017517;28;1223;-95
2022/03/25 12:32:20;;;;;;;;;;;;;;;5.88;67.41;101050.47;5048204;28;1639;-96
2022/03/25 12:34:47;;;;;;;;;;;;;;;5.88;67.59;101042.47;5034713;28;1291;-96
2022/03/25 12:37:13;;;;;;;;;;;;;;;5.88;67.37;101046.00;5023755;28;3394;-96
2022/03/25 12:39:40;;;;;;;;;;;;;;;5.89;67.51;101039.63;5017515;28;1264;-95
2022/03/25 12:42:06;;;;;;;;;;;;;;;5.89;67.39;101044.16;5017486;28;1153;-96
2022/03/25 12:44:33;;;;;;;;;;;;;;;5.89;67.29;101050.31;5016805;28;1927;-95
2022/03/25 12:46:59;;;;;;;;;;;;;;;5.91;67.51;101052.81;5051930;28;1275;-95
2022/03/25 12:49:26;;;;;;;;;;;;;;;5.90;67.54;101038.59;5037976;28;1343;-95
2022/03/25 12:51:53;;;;;;;;;;;;;;;5.92;67.51;101030.44;5047311;28;1405;-95
2022/03/25 12:54:19;;;;;;;;;;;;;;;5.92;67.51;101027.75;5038251;28;1251;-96
2022/03/25 12:56:46;;;;;;;;;;;;;;;5.92;67.47;101017.06;5021919;28;1285;-95
2022/03/25 12:59:12;;;;;;;;;;;;;;;5.92;67.64;101023.22;5019968;28;1751;-95